Time;durP1;ratioP1;P1;durP2;ratioP2;P2;SDS_P1;SDS_P2;PMS_P1;PMS_P2;Temp;Humidity;BMP_temperature;BMP_pressure;BME280_temperature;BME280_humidity;BME280_pressure;Samples;Min_cycle;Max_cycle;Signal;HPM_P1;HPM_P2
2023/03/10 00:01:09;;;;;;;9.68;2.88;;;;;;;6.28;58.57;93092.00;4982108;28;20081;-77
2023/03/10 00:03:35;;;;;;;8.85;2.42;;;;;;;5.98;58.71;93101.31;4980568;28;20050;-77
2023/03/10 00:06:01;;;;;;;7.35;2.80;;;;;;;5.84;59.37;93097.13;4979391;28;20100;-78
2023/03/10 00:08:27;;;;;;;6.97;2.47;;;;;;;5.23;62.45;93102.59;4980084;28;20034;-78
2023/03/10 00:10:52;;;;;;;6.72;2.33;;;;;;;5.25;63.33;93095.31;4981440;28;20072;-77
2023/03/10 00:13:17;;;;;;;5.97;1.88;;;;;;;5.27;63.46;93087.97;4980905;28;20316;-78
2023/03/10 00:15:43;;;;;;;7.95;2.10;;;;;;;2.88;70.01;93097.38;4980983;28;20451;-77
2023/03/10 00:18:08;;;;;;;7.90;2.13;;;;;;;4.25;67.50;93087.19;4980457;28;20269;-77
2023/03/10 00:20:35;;;;;;;4.95;2.13;;;;;;;5.04;63.97;93075.22;4979614;28;20042;-77
2023/03/10 00:23:00;;;;;;;5.03;2.28;;;;;;;4.33;65.83;93079.09;4981229;28;20507;-77
2023/03/10 00:25:25;;;;;;;8.15;3.28;;;;;;;5.46;62.74;93082.84;4981386;28;20045;-77
2023/03/10 00:27:51;;;;;;;9.00;3.00;;;;;;;5.20;63.33;93074.00;4981100;28;20096;-78
2023/03/10 00:30:16;;;;;;;5.35;2.85;;;;;;;5.24;63.34;93067.31;4980968;28;20549;-77
2023/03/10 00:32:42;;;;;;;3.17;1.30;;;;;;;3.50;69.84;93080.13;4980736;28;20057;-77
2023/03/10 00:35:07;;;;;;;7.13;2.10;;;;;;;4.31;67.61;93059.25;4981248;28;20277;-77
2023/03/10 00:37:36;;;;;;;3.92;2.15;;;;;;;4.85;64.98;93064.50;4981153;28;20060;-77
2023/03/10 00:40:05;;;;;;;4.18;1.55;;;;;;;4.64;64.97;93066.34;4979241;28;20085;-77
2023/03/10 00:42:31;;;;;;;;;;;;;;;3.93;68.17;93076.41;4981515;28;20050;-77
2023/03/10 00:44:56;;;;;;;3.53;1.70;;;;;;;4.65;65.21;93057.44;4981078;28;19914;-78
2023/03/10 00:47:21;;;;;;;5.72;3.10;;;;;;;4.61;65.64;93050.94;4978788;28;20042;-78
2023/03/10 00:49:47;;;;;;;4.07;1.20;;;;;;;5.21;62.99;93050.03;4979072;28;20042;-77
2023/03/10 00:52:12;;;;;;;3.20;1.30;;;;;;;4.54;65.79;93055.41;4980857;28;20112;-77
2023/03/10 00:54:39;;;;;;;5.95;2.25;;;;;;;5.42;62.11;93048.16;4980908;28;20042;-77
2023/03/10 00:57:07;;;;;;;3.00;1.45;;;;;;;5.44;61.75;93043.47;4980792;28;20248;-77
2023/03/10 00:59:32;;;;;;;3.95;1.88;;;;;;;5.89;59.73;93038.41;4980686;28;20224;-77
2023/03/10 01:01:57;;;;;;;2.17;1.35;;;;;;;5.45;62.08;93033.75;4980087;28;20076;-77
2023/03/10 01:04:24;;;;;;;4.38;1.17;;;;;;;3.53;66.96;93035.00;4980230;28;20034;-77
2023/03/10 01:06:49;;;;;;;3.47;1.15;;;;;;;5.38;61.07;93044.34;4980322;28;20034;-77
2023/03/10 01:09:15;;;;;;;3.92;1.08;;;;;;;4.50;64.36;93020.75;4980590;28;20515;-77
2023/03/10 01:11:40;;;;;;;1.85;1.40;;;;;;;4.59;64.70;93021.34;4980789;28;20061;-77
2023/03/10 01:14:06;;;;;;;1.50;0.80;;;;;;;4.40;64.10;93026.44;4981236;28;20042;-76
2023/03/10 01:16:32;;;;;;;1.50;0.80;;;;;;;2.90;70.35;93037.53;4981281;28;20068;-77
2023/03/10 01:18:57;;;;;;;1.20;0.80;;;;;;;3.15;70.98;93042.31;4982162;28;20046;-76
2023/03/10 01:21:31;;;;;;;5.43;1.00;;;;;;;3.01;70.70;93016.97;4982338;28;20227;-76
2023/03/10 01:23:56;;;;;;;1.10;0.70;;;;;;;3.42;69.50;93008.25;4982309;28;20042;-77
2023/03/10 01:26:21;;;;;;;0.85;0.80;;;;;;;2.79;73.13;93014.41;4982252;28;20045;-76
2023/03/10 01:28:47;;;;;;;0.80;0.77;;;;;;;2.17;77.08;93017.63;4984178;28;20049;-77
2023/03/10 01:31:12;;;;;;;1.15;0.90;;;;;;;3.10;72.18;93007.09;4985584;28;20045;-76
2023/03/10 01:33:38;;;;;;;0.80;0.60;;;;;;;3.09;72.69;93013.38;4985671;28;20573;-76
2023/03/10 01:36:10;;;;;;;2.55;1.02;;;;;;;2.32;76.37;93004.44;4982032;28;20033;-77
2023/03/10 01:38:37;;;;;;;0.77;0.70;;;;;;;3.07;73.28;92995.16;4979312;28;20038;-77
2023/03/10 01:41:02;;;;;;;4.40;1.02;;;;;;;2.90;74.05;92990.22;4983002;28;20774;-76
2023/03/10 01:43:35;;;;;;;7.18;0.90;;;;;;;3.25;72.51;92981.47;4984639;28;20030;-77
2023/03/10 01:46:00;;;;;;;2.20;0.77;;;;;;;2.91;72.29;92989.22;4986211;28;20071;-76
2023/03/10 01:48:26;;;;;;;1.70;0.97;;;;;;;3.11;73.14;92978.00;4985297;28;20439;-77
2023/03/10 01:50:52;;;;;;;1.50;0.60;;;;;;;2.38;75.02;92982.66;4965375;28;20742;-76
2023/03/10 01:53:18;;;;;;;1.38;0.68;;;;;;;3.17;72.32;92979.81;4978423;28;20102;-76
2023/03/10 01:55:47;;;;;;;1.40;0.70;;;;;;;3.02;73.92;92987.84;4962077;28;20152;-76
2023/03/10 01:58:14;;;;;;;0.95;0.50;;;;;;;3.51;71.29;92956.28;4977880;28;20034;-76
2023/03/10 02:00:40;;;;;;;0.85;0.50;;;;;;;3.53;71.25;92963.97;4978312;28;20046;-76
2023/03/10 02:03:23;;;;;;;2.10;1.35;;;;;;;3.12;72.57;92970.91;4978385;28;20108;-76
2023/03/10 02:06:00;;;;;;;0.52;0.52;;;;;;;2.68;73.32;92978.19;4977585;28;20044;-76
2023/03/10 02:08:28;;;;;;;0.57;0.50;;;;;;;2.94;73.71;92974.06;4979137;28;20495;-77
2023/03/10 02:10:53;;;;;;;0.95;0.85;;;;;;;2.11;76.99;92966.72;4979432;28;20137;-77
2023/03/10 02:13:18;;;;;;;1.25;0.73;;;;;;;2.61;75.93;92965.81;4980876;28;20027;-76
2023/03/10 02:15:44;;;;;;;1.40;0.55;;;;;;;3.23;73.50;92970.34;4980908;28;20703;-77
2023/03/10 02:18:10;;;;;;;0.95;0.90;;;;;;;3.27;73.02;92965.50;4980058;28;20073;-77
2023/03/10 02:21:07;;;;;;;1.33;0.90;;;;;;;3.27;72.51;92968.13;4979134;28;20042;-77
2023/03/10 02:23:47;;;;;;;2.30;0.90;;;;;;;3.30;72.09;92958.03;4977634;28;20088;-77
2023/03/10 02:26:18;;;;;;;2.30;1.23;;;;;;;1.82;78.37;92972.94;4977261;28;20038;-77
2023/03/10 02:28:44;;;;;;;1.05;0.90;;;;;;;2.94;74.65;92963.56;4979817;28;20026;-77
2023/03/10 02:31:09;;;;;;;2.47;0.82;;;;;;;2.89;74.40;92964.94;4979075;28;20379;-77
2023/03/10 02:33:34;;;;;;;2.40;0.70;;;;;;;2.63;76.39;92974.31;4978336;28;20204;-76
2023/03/10 02:36:15;;;;;;;0.88;0.63;;;;;;;2.65;74.75;92984.63;4961653;28;20030;-76
2023/03/10 02:38:40;;;;;;;1.55;0.80;;;;;;;3.06;73.73;92956.72;4976053;28;20503;-77
2023/03/10 02:41:19;;;;;;;1.08;0.80;;;;;;;3.14;72.13;92968.91;4978264;28;20030;-77
2023/03/10 02:43:45;;;;;;;1.25;0.80;;;;;;;2.98;73.77;92959.53;4977440;28;20145;-77
2023/03/10 02:46:11;;;;;;;0.73;0.73;;;;;;;3.33;72.25;92941.03;4979012;28;20046;-77
2023/03/10 02:48:37;;;;;;;1.17;0.95;;;;;;;2.99;75.00;92974.31;4977552;28;20034;-76
2023/03/10 02:51:05;;;;;;;1.33;1.02;;;;;;;2.58;75.85;92966.22;4978820;28;20112;-77
2023/03/10 02:53:30;;;;;;;1.33;1.23;;;;;;;3.02;73.80;92955.50;4961718;28;20109;-76
2023/03/10 02:55:56;;;;;;;1.92;1.00;;;;;;;2.62;76.47;92951.69;4978941;28;20034;-76
2023/03/10 02:58:23;;;;;;;2.55;1.40;;;;;;;2.77;74.74;92948.94;4978822;28;20053;-76
2023/03/10 03:00:49;;;;;;;1.23;0.93;;;;;;;3.47;72.76;92935.84;4975606;28;20030;-77
2023/03/10 03:03:16;;;;;;;1.50;0.80;;;;;;;3.47;71.82;92947.16;4978473;28;20119;-77
2023/03/10 03:05:41;;;;;;;1.75;1.20;;;;;;;2.21;78.53;92948.00;4977019;28;20105;-76
2023/03/10 03:08:06;;;;;;;2.58;1.15;;;;;;;2.82;74.06;92943.06;4978386;28;20121;-77
2023/03/10 03:10:32;;;;;;;4.65;1.25;;;;;;;2.60;74.42;92939.75;4977634;28;20066;-77
2023/03/10 03:12:57;;;;;;;2.15;1.33;;;;;;;2.66;75.10;92928.47;4977886;28;20035;-77
2023/03/10 03:15:23;;;;;;;2.10;1.30;;;;;;;2.54;74.99;92943.97;4978148;28;20092;-76
2023/03/10 03:17:48;;;;;;;5.07;1.58;;;;;;;1.73;76.81;92932.91;4977617;28;20502;-76
2023/03/10 03:20:14;;;;;;;3.28;1.40;;;;;;;2.10;75.57;92938.84;4978490;28;20044;-76
2023/03/10 03:22:40;;;;;;;2.90;1.45;;;;;;;2.65;73.91;92940.78;4992806;28;20380;-76
2023/03/10 03:25:06;;;;;;;1.75;1.25;;;;;;;2.47;75.00;92932.59;4978564;28;20030;-76
2023/03/10 03:27:31;;;;;;;6.82;1.27;;;;;;;2.57;75.25;92929.63;4976335;28;20102;-76
2023/03/10 03:29:57;;;;;;;4.38;1.70;;;;;;;3.35;71.62;92931.13;4978113;28;20034;-77
2023/03/10 03:32:23;;;;;;;3.88;1.30;;;;;;;3.33;71.55;92917.34;4978127;28;20054;-77
2023/03/10 03:34:48;;;;;;;3.45;1.50;;;;;;;3.40;70.44;92918.19;4978309;28;20113;-76
2023/03/10 03:37:13;;;;;;;2.60;1.40;;;;;;;3.64;69.82;92912.59;4977992;28;20557;-77
2023/03/10 03:39:39;;;;;;;6.30;2.00;;;;;;;3.64;70.03;92923.13;4977630;28;20065;-76
2023/03/10 03:42:04;;;;;;;5.00;1.77;;;;;;;3.70;68.81;92918.88;4977390;28;20076;-77
2023/03/10 03:44:30;;;;;;;4.05;1.60;;;;;;;3.49;69.65;92924.09;4978179;28;20550;-76
2023/03/10 03:46:55;;;;;;;4.50;1.40;;;;;;;3.90;67.55;92932.03;4977735;28;20046;-76
2023/03/10 03:49:21;;;;;;;4.05;1.40;;;;;;;4.25;65.33;92938.91;4978223;28;20403;-77
2023/03/10 03:51:46;;;;;;;7.47;2.00;;;;;;;4.37;65.21;92932.00;4977591;28;20042;-77
2023/03/10 03:54:12;;;;;;;2.95;1.40;;;;;;;4.17;66.50;92938.09;4977743;28;20042;-76
2023/03/10 03:56:37;;;;;;;4.72;1.92;;;;;;;4.14;65.74;92929.78;4976068;28;20040;-76
2023/03/10 03:59:04;;;;;;;3.88;1.90;;;;;;;3.53;67.89;92927.94;4977723;28;20074;-77
2023/03/10 04:01:30;;;;;;;8.30;1.63;;;;;;;2.94;71.03;92932.00;4977527;28;20531;-77
2023/03/10 04:03:56;;;;;;;4.22;1.80;;;;;;;2.94;71.10;92919.69;4957762;28;20066;-77
2023/03/10 04:06:21;;;;;;;4.53;1.80;;;;;;;3.56;67.42;92918.84;4958022;28;20042;-76
2023/03/10 04:08:48;;;;;;;6.90;1.73;;;;;;;3.09;68.31;92924.00;4958423;28;20262;-77
2023/03/10 04:11:14;;;;;;;5.78;1.80;;;;;;;4.41;65.08;92908.69;4958158;28;20133;-77
2023/03/10 04:13:40;;;;;;;6.15;1.67;;;;;;;4.23;63.91;92914.59;4957180;28;20059;-77
2023/03/10 04:16:06;;;;;;;2.35;1.10;;;;;;;4.36;64.71;92917.22;4977797;28;20061;-77
2023/03/10 04:18:32;;;;;;;5.35;1.67;;;;;;;3.91;65.95;92918.66;4976378;28;20046;-77
2023/03/10 04:20:58;;;;;;;4.93;1.77;;;;;;;3.50;67.19;92924.94;4974797;28;20030;-77
2023/03/10 04:23:23;;;;;;;6.30;1.80;;;;;;;4.65;63.19;92906.38;4977199;28;20061;-77
2023/03/10 04:25:49;;;;;;;5.90;2.30;;;;;;;4.16;65.62;92917.25;4976622;28;20041;-77
2023/03/10 04:28:14;;;;;;;7.25;2.03;;;;;;;4.78;63.30;92914.25;4977561;28;20072;-77
2023/03/10 04:30:43;;;;;;;4.57;1.70;;;;;;;4.68;63.47;92903.34;4977285;28;20039;-77
2023/03/10 04:33:09;;;;;;;6.28;2.15;;;;;;;3.62;66.44;92911.97;4977493;28;20026;-77
2023/03/10 04:35:38;;;;;;;6.43;2.05;;;;;;;3.54;67.63;92910.34;4978035;28;20042;-77
2023/03/10 04:38:04;;;;;;;3.67;1.90;;;;;;;3.74;66.19;92906.94;4975968;28;20431;-77
2023/03/10 04:40:29;;;;;;;6.28;1.83;;;;;;;4.40;64.32;92907.88;4980608;28;20109;-77
2023/03/10 04:42:54;;;;;;;7.28;1.95;;;;;;;5.08;62.08;92905.03;4979556;28;20093;-77
2023/03/10 04:45:20;;;;;;;5.90;1.70;;;;;;;3.54;67.11;92905.09;4980553;28;20308;-77
2023/03/10 04:47:45;;;;;;;4.28;1.90;;;;;;;4.86;62.39;92910.56;4980408;28;20049;-77
2023/03/10 04:50:11;;;;;;;9.63;2.13;;;;;;;4.20;64.47;92915.81;4980559;28;20037;-77
2023/03/10 04:52:37;;;;;;;6.60;2.10;;;;;;;4.66;63.72;92908.81;4981342;28;20538;-77
2023/03/10 04:55:02;;;;;;;8.82;2.15;;;;;;;5.20;61.40;92905.16;4980505;28;20038;-77
2023/03/10 04:57:28;;;;;;;9.00;2.30;;;;;;;4.01;64.99;92909.56;4980889;28;20041;-77
2023/03/10 05:00:13;;;;;;;8.25;1.90;;;;;;;3.63;65.13;92922.28;4980737;28;20038;-77
2023/03/10 05:02:39;;;;;;;5.97;2.10;;;;;;;4.14;65.90;92909.53;4979394;28;20360;-77
2023/03/10 05:05:04;;;;;;;7.82;1.70;;;;;;;3.39;65.93;92913.94;4980513;28;20211;-77
2023/03/10 05:07:30;;;;;;;6.55;2.00;;;;;;;4.71;63.18;92902.94;4980413;28;20034;-77
2023/03/10 05:09:56;;;;;;;9.75;2.22;;;;;;;3.47;65.44;92914.78;4980584;28;20222;-77
2023/03/10 05:12:21;;;;;;;4.75;2.17;;;;;;;4.56;62.55;92900.56;4978969;28;20034;-77
2023/03/10 05:14:47;;;;;;;8.32;2.08;;;;;;;4.71;61.90;92903.75;4977665;28;20047;-77
2023/03/10 05:17:12;;;;;;;7.18;2.30;;;;;;;4.03;64.74;92907.53;4980519;28;20049;-77
2023/03/10 05:19:37;;;;;;;7.70;2.10;;;;;;;4.53;62.89;92906.22;4979371;28;20054;-77
2023/03/10 05:22:04;;;;;;;5.18;1.70;;;;;;;4.61;61.83;92911.28;4978395;28;20333;-77
2023/03/10 05:24:29;;;;;;;6.15;1.90;;;;;;;4.84;61.89;92899.44;4979036;28;20229;-77
2023/03/10 05:26:55;;;;;;;9.48;2.00;;;;;;;4.42;64.24;92905.03;4980180;28;20034;-77
2023/03/10 05:29:20;;;;;;;8.43;1.73;;;;;;;4.22;64.58;92897.97;4980583;28;20528;-77
2023/03/10 05:31:46;;;;;;;7.07;2.10;;;;;;;5.01;61.49;92891.88;4979902;28;20297;-77
2023/03/10 05:34:12;;;;;;;4.38;1.60;;;;;;;3.57;66.99;92899.41;4978259;28;20068;-77
2023/03/10 05:36:40;;;;;;;5.35;1.80;;;;;;;4.83;62.84;92895.97;4979892;28;20289;-77
2023/03/10 05:39:05;;;;;;;6.95;1.70;;;;;;;5.31;61.07;92879.97;4979682;28;20085;-77
2023/03/10 05:41:31;;;;;;;9.15;1.98;;;;;;;4.40;62.76;92889.44;4978201;28;20423;-77
2023/03/10 05:43:57;;;;;;;8.18;2.03;;;;;;;5.50;60.71;92885.34;4979868;28;20347;-77
2023/03/10 05:46:22;;;;;;;10.57;2.40;;;;;;;4.96;61.53;92875.84;4979371;28;20034;-77
2023/03/10 05:48:48;;;;;;;7.78;1.90;;;;;;;4.70;62.33;92886.28;4979080;28;20041;-77
2023/03/10 05:51:13;;;;;;;9.15;2.10;;;;;;;5.12;61.83;92879.03;4978509;28;20054;-78
2023/03/10 05:53:40;;;;;;;9.02;2.53;;;;;;;3.96;63.80;92869.84;4977961;28;20033;-78
2023/03/10 05:56:16;;;;;;;7.60;2.20;;;;;;;5.67;60.58;92878.50;4978415;28;20034;-78
2023/03/10 05:58:41;;;;;;;5.10;2.05;;;;;;;5.13;60.53;92868.28;4976614;28;20507;-78
2023/03/10 06:01:07;;;;;;;8.00;2.17;;;;;;;5.48;60.14;92875.78;4979663;28;20032;-77
2023/03/10 06:03:33;;;;;;;4.65;2.08;;;;;;;5.78;58.37;92870.91;4978134;28;20574;-77
2023/03/10 06:05:58;;;;;;;7.00;2.25;;;;;;;4.97;61.72;92872.22;4977209;28;20045;-78
2023/03/10 06:08:25;;;;;;;6.78;2.65;;;;;;;5.76;58.89;92876.41;4979751;28;20041;-78
2023/03/10 06:10:50;;;;;;;5.70;1.95;;;;;;;5.09;59.22;92870.56;4978714;28;20388;-78
2023/03/10 06:13:19;;;;;;;8.05;2.08;;;;;;;5.29;60.28;92876.72;4978580;28;20095;-78
2023/03/10 06:15:55;;;;;;;7.00;2.17;;;;;;;5.51;59.01;92868.47;4977705;28;20038;-77
2023/03/10 06:18:21;;;;;;;6.97;1.90;;;;;;;5.56;57.76;92858.06;4975132;28;20619;-78
2023/03/10 06:20:48;;;;;;;6.18;1.80;;;;;;;5.90;57.66;92866.53;4975290;28;20038;-65
2023/03/10 06:23:14;;;;;;;9.27;2.03;;;;;;;5.89;56.63;92880.78;4975272;28;20050;-65
2023/03/10 06:25:39;;;;;;;7.38;1.90;;;;;;;3.89;63.21;92873.31;4977272;28;20668;-65
2023/03/10 06:28:05;;;;;;;9.48;3.03;;;;;;;5.47;58.91;92866.25;4973939;28;20105;-65
2023/03/10 06:30:30;;;;;;;8.23;2.15;;;;;;;4.74;61.42;92873.53;4976880;28;20164;-65
2023/03/10 06:32:55;;;;;;;10.50;2.83;;;;;;;4.04;62.43;92874.91;4978548;28;20045;-65
2023/03/10 06:35:21;;;;;;;11.75;2.30;;;;;;;3.99;64.30;92872.91;4977374;28;20064;-65
2023/03/10 06:37:46;;;;;;;8.68;2.38;;;;;;;5.25;59.91;92859.69;4977693;28;20058;-65
2023/03/10 06:40:12;;;;;;;8.23;1.90;;;;;;;5.70;58.38;92875.44;4978245;28;20482;-65
2023/03/10 06:42:39;;;;;;;6.28;2.40;;;;;;;4.44;61.97;92871.38;4972780;28;20038;-66
2023/03/10 06:45:05;;;;;;;6.07;1.38;;;;;;;5.03;59.92;92867.94;4977659;28;20131;-65
2023/03/10 06:47:30;;;;;;;10.85;2.95;;;;;;;4.35;63.09;92886.59;4977177;28;20510;-65
2023/03/10 06:49:56;;;;;;;7.63;2.10;;;;;;;3.97;65.58;92882.00;4975904;28;20039;-65
2023/03/10 06:52:21;;;;;;;9.15;2.70;;;;;;;4.78;62.83;92872.09;4976630;28;20348;-65
2023/03/10 06:54:46;;;;;;;10.02;3.33;;;;;;;4.55;62.20;92869.94;4975793;28;20070;-65
2023/03/10 06:57:12;;;;;;;10.82;4.18;;;;;;;5.88;59.05;92865.94;4977374;28;20515;-65
2023/03/10 06:59:37;;;;;;;10.77;2.30;;;;;;;5.68;59.43;92874.81;4977877;28;20047;-65
2023/03/10 07:02:03;;;;;;;4.60;1.75;;;;;;;5.79;58.48;92878.63;4971084;28;20046;-65
2023/03/10 07:04:28;;;;;;;8.73;2.35;;;;;;;6.15;57.52;92870.97;4977118;28;20189;-65
2023/03/10 07:06:53;;;;;;;10.50;2.30;;;;;;;6.26;56.90;92869.47;4972807;28;20672;-65
2023/03/10 07:09:19;;;;;;;7.88;2.15;;;;;;;6.19;56.72;92869.53;4976022;28;20323;-65
2023/03/10 07:11:44;;;;;;;4.72;1.67;;;;;;;5.78;57.25;92881.47;4974571;28;20044;-65
2023/03/10 07:14:11;;;;;;;9.27;3.50;;;;;;;3.72;64.52;92878.19;4973444;28;20482;-65
2023/03/10 07:16:40;;;;;;;10.02;4.57;;;;;;;5.09;60.89;92873.19;4976997;28;20040;-65
2023/03/10 07:19:05;;;;;;;6.32;2.78;;;;;;;5.94;58.49;92869.53;4975316;28;20045;-65
2023/03/10 07:21:31;;;;;;;7.47;2.92;;;;;;;5.52;60.37;92878.00;4975446;28;20030;-65
2023/03/10 07:23:59;;;;;;;6.95;2.10;;;;;;;5.55;59.85;92869.66;4976492;28;20034;-65
2023/03/10 07:26:24;;;;;;;8.55;2.03;;;;;;;4.25;63.03;92884.38;4975502;28;20042;-65
2023/03/10 07:28:49;;;;;;;10.77;3.15;;;;;;;5.16;61.40;92875.78;4974876;28;20399;-65
2023/03/10 07:31:15;;;;;;;8.50;4.18;;;;;;;5.06;61.90;92872.78;4976407;28;20039;-65
2023/03/10 07:33:40;;;;;;;9.02;4.00;;;;;;;5.88;58.57;92876.50;4974498;28;20038;-66
2023/03/10 07:36:07;;;;;;;10.77;2.92;;;;;;;5.66;59.05;92874.25;4977700;28;20038;-65
2023/03/10 07:38:33;;;;;;;7.20;3.20;;;;;;;5.14;61.12;92867.25;4972726;28;20078;-65
2023/03/10 07:40:58;;;;;;;8.02;1.85;;;;;;;5.98;58.32;92879.47;4975291;28;20406;-65
2023/03/10 07:43:24;;;;;;;4.65;1.45;;;;;;;6.46;56.65;92879.03;4975536;28;20085;-65
2023/03/10 07:45:49;;;;;;;12.40;2.72;;;;;;;4.96;61.15;92889.84;4975898;28;20097;-65
2023/03/10 07:48:15;;;;;;;7.20;2.00;;;;;;;5.69;58.19;92873.81;4973640;28;20132;-65
2023/03/10 07:50:40;;;;;;;7.53;2.63;;;;;;;5.58;58.70;92885.06;4965297;28;20507;-65
2023/03/10 07:53:05;;;;;;;6.13;3.33;;;;;;;4.88;62.44;92874.28;4977178;28;20038;-65
2023/03/10 07:55:31;;;;;;;6.93;3.25;;;;;;;5.54;60.29;92881.25;4976553;28;20093;-66
2023/03/10 07:57:59;;;;;;;7.53;2.67;;;;;;;5.11;60.77;92867.69;4975869;28;20050;-65
2023/03/10 08:00:24;;;;;;;5.97;2.28;;;;;;;5.85;58.81;92875.09;4975954;28;20468;-65
2023/03/10 08:02:50;;;;;;;6.32;2.10;;;;;;;5.11;60.61;92870.34;4975325;28;20071;-65
2023/03/10 08:05:15;;;;;;;4.68;2.67;;;;;;;5.64;59.93;92873.63;4976740;28;20664;-65
2023/03/10 08:07:42;;;;;;;6.90;1.70;;;;;;;5.06;60.41;92873.59;4974530;28;20065;-65
2023/03/10 08:10:08;;;;;;;6.38;3.17;;;;;;;5.17;61.40;92877.38;4976564;28;20042;-65
2023/03/10 08:12:34;;;;;;;7.55;4.60;;;;;;;4.51;63.56;92874.81;4980104;28;20048;-65
2023/03/10 08:15:00;;;;;;;6.40;1.98;;;;;;;4.47;62.80;92875.44;4979123;28;20070;-66
2023/03/10 08:17:29;;;;;;;4.88;2.03;;;;;;;4.19;63.50;92893.13;4979366;28;20568;-65
2023/03/10 08:19:56;;;;;;;5.22;2.00;;;;;;;4.24;64.26;92881.97;4979965;28;20316;-65
2023/03/10 08:22:22;;;;;;;7.30;3.88;;;;;;;4.74;62.59;92876.16;4976910;28;20038;-65
2023/03/10 08:24:47;;;;;;;6.47;2.10;;;;;;;4.15;63.54;92879.53;4979533;28;20546;-66
2023/03/10 08:27:12;;;;;;;9.30;2.30;;;;;;;2.85;68.53;92879.63;4976681;28;20046;-65
2023/03/10 08:29:38;;;;;;;6.05;1.60;;;;;;;3.69;66.71;92891.75;4980001;28;20057;-66
2023/03/10 08:32:03;;;;;;;7.35;2.03;;;;;;;4.11;65.30;92891.50;4977148;28;20038;-65
2023/03/10 08:34:33;;;;;;;3.70;1.48;;;;;;;3.94;64.65;92893.75;4978226;28;20046;-65
2023/03/10 08:36:59;;;;;;;4.65;1.65;;;;;;;3.78;66.53;92900.25;4979507;28;20042;-66
2023/03/10 08:39:25;;;;;;;8.43;2.08;;;;;;;4.19;65.41;92891.28;4976379;28;20049;-66
2023/03/10 08:41:50;;;;;;;4.25;1.70;;;;;;;4.80;62.94;92895.59;4978239;28;20069;-66
2023/03/10 08:44:16;;;;;;;8.75;1.98;;;;;;;4.24;64.07;92903.03;4979276;28;20622;-65
2023/03/10 08:46:43;;;;;;;8.32;2.25;;;;;;;3.88;64.44;92889.31;4979653;28;20038;-66
2023/03/10 08:49:09;;;;;;;4.45;1.95;;;;;;;3.71;67.57;92899.44;4979514;28;20243;-66
2023/03/10 08:51:34;;;;;;;7.18;2.13;;;;;;;3.42;66.43;92899.56;4976280;28;20038;-66
2023/03/10 08:54:00;;;;;;;9.65;2.05;;;;;;;3.81;65.62;92897.19;4977845;28;20050;-66
2023/03/10 08:56:25;;;;;;;9.32;2.40;;;;;;;4.11;64.44;92904.66;4978204;28;20030;-66
2023/03/10 08:58:55;;;;;;;6.65;2.13;;;;;;;5.56;61.00;92901.13;4979179;28;20042;-66
2023/03/10 09:01:20;;;;;;;7.43;1.85;;;;;;;4.97;62.41;92903.84;4976079;28;20451;-66
2023/03/10 09:03:47;;;;;;;5.88;2.00;;;;;;;4.64;62.55;92902.13;4979902;28;20041;-66
2023/03/10 09:06:12;;;;;;;7.90;1.98;;;;;;;5.24;61.04;92906.41;4976741;28;21345;-63
2023/03/10 09:08:39;;;;;;;8.95;2.22;;;;;;;5.03;60.30;92904.84;4977111;28;20404;-66
2023/03/10 09:11:04;;;;;;;8.02;2.28;;;;;;;5.01;61.90;92907.69;4975770;28;20313;-68
2023/03/10 09:13:31;;;;;;;12.15;2.85;;;;;;;5.61;57.85;92917.13;4977081;28;20053;-67
2023/03/10 09:15:57;;;;;;;10.52;2.30;;;;;;;4.24;61.36;92918.84;4973737;28;20605;-67
2023/03/10 09:18:22;;;;;;;6.13;2.15;;;;;;;5.41;59.65;92911.94;4975377;28;20038;-67
2023/03/10 09:20:48;;;;;;;9.30;2.78;;;;;;;5.51;58.47;92916.75;4975331;28;20042;-67
2023/03/10 09:23:13;;;;;;;8.73;2.50;;;;;;;5.04;58.17;92898.53;4977570;28;20046;-67
2023/03/10 09:25:39;;;;;;;6.55;2.15;;;;;;;4.93;59.87;92921.13;4976400;28;20441;-67
2023/03/10 09:28:06;;;;;;;17.65;7.32;;;;;;;6.28;56.72;92912.34;4977716;28;20446;-66
2023/03/10 09:30:36;;;;;;;9.10;2.70;;;;;;;5.57;57.32;92923.84;4978659;28;20038;-67
2023/03/10 09:33:04;;;;;;;9.32;2.35;;;;;;;6.07;55.55;92917.00;4976572;28;20106;-67
2023/03/10 09:35:30;;;;;;;;;;;;;;;5.88;56.55;92917.97;4978318;28;20054;-67
2023/03/10 09:37:55;;;;;;;6.63;1.90;;;;;;;6.01;56.59;92927.63;4977169;28;19984;-67
2023/03/10 09:40:21;;;;;;;10.75;2.45;;;;;;;6.32;55.65;92910.06;4979135;28;20294;-67
2023/03/10 09:42:53;;;;;;;6.38;1.88;;;;;;;5.40;57.33;92920.06;4978340;28;20046;-67
2023/03/10 09:46:04;;;;;;;9.98;2.72;;;;;;;4.39;58.06;92958.94;4976044;28;20052;-67
2023/03/10 09:49:00;;;;;;;8.25;2.55;;;;;;;3.93;60.43;92940.34;4954385;28;20058;-67
2023/03/10 09:51:27;;;;;;;6.63;1.95;;;;;;;4.68;59.63;92924.41;4972128;28;20424;-66
2023/03/10 09:54:25;;;;;;;7.07;1.77;;;;;;;5.03;56.46;92920.66;4973092;28;20050;-67
2023/03/10 09:56:50;;;;;;;9.10;2.22;;;;;;;4.64;59.34;92931.94;4973000;28;20180;-67
2023/03/10 09:59:20;;;;;;;7.60;2.35;;;;;;;5.89;56.37;92922.22;4975433;28;20539;-67
2023/03/10 10:01:48;;;;;;;12.20;2.45;;;;;;;6.19;55.25;92914.44;4953688;28;20035;-67
2023/03/10 10:04:20;;;;;;;7.72;2.20;;;;;;;5.77;55.08;92924.72;4978992;28;20026;-67
2023/03/10 10:06:46;;;;;;;9.50;4.78;;;;;;;6.52;53.95;92920.47;4977583;28;20048;-68
2023/03/10 10:09:23;;;;;;;7.07;1.92;;;;;;;6.10;54.43;92923.66;4976433;28;20035;-67
2023/03/10 10:11:48;;;;;;;4.72;1.67;;;;;;;5.36;56.76;92946.09;4975871;28;20101;-67
2023/03/10 10:14:16;;;;;;;5.80;1.77;;;;;;;4.94;57.65;92938.53;4977742;28;20084;-68
2023/03/10 10:17:06;;;;;;;4.93;1.73;;;;;;;4.66;57.02;92940.44;4976252;28;20046;-68
2023/03/10 10:19:31;;;;;;;8.68;2.28;;;;;;;5.20;56.54;92927.09;4976157;28;20415;-67
2023/03/10 10:22:13;;;;;;;6.18;2.28;;;;;;;5.83;55.18;92935.25;4977397;28;20034;-67
2023/03/10 10:24:39;;;;;;;8.93;2.65;;;;;;;5.72;56.39;92928.81;4971159;28;20030;-67
2023/03/10 10:27:04;;;;;;;6.88;2.80;;;;;;;6.77;52.91;92924.91;4972279;28;20050;-67
2023/03/10 10:29:37;;;;;;;5.10;1.73;;;;;;;5.35;55.57;92931.28;4975342;28;20030;-67
2023/03/10 10:32:23;;;;;;;4.55;1.48;;;;;;;6.76;52.42;92920.63;4977951;28;20054;-67
2023/03/10 10:34:48;;;;;;;5.07;1.70;;;;;;;6.96;52.28;92925.69;4977296;28;20061;-67
2023/03/10 10:37:21;;;;;;;4.68;1.58;;;;;;;6.45;53.16;92920.50;4973168;28;20058;-67
2023/03/10 10:39:46;;;;;;;6.65;2.20;;;;;;;6.72;51.51;92914.97;4972586;28;20423;-67
2023/03/10 10:42:23;;;;;;;5.93;1.88;;;;;;;6.65;52.74;92919.53;4976306;28;20251;-67
2023/03/10 10:44:49;;;;;;;6.80;2.33;;;;;;;5.30;53.79;92926.63;4958180;28;20037;-67
2023/03/10 10:47:57;;;;;;;11.75;2.38;;;;;;;5.36;53.96;92935.53;4959770;28;20034;-67
2023/03/10 10:50:32;;;;;;;4.78;1.92;;;;;;;6.58;51.44;92934.66;4951569;28;20069;-67
2023/03/10 10:53:20;;;;;;;4.35;1.45;;;;;;;5.67;53.57;92939.22;4975045;28;20503;-67
2023/03/10 10:55:58;;;;;;;4.95;1.77;;;;;;;6.47;52.86;92929.00;4973413;28;20043;-67
2023/03/10 10:58:32;;;;;;;4.03;1.77;;;;;;;6.58;52.06;92924.88;4971774;28;20423;-67
2023/03/10 11:01:00;;;;;;;6.53;2.67;;;;;;;7.07;49.48;92932.06;4976764;28;20057;-67
2023/03/10 11:03:36;;;;;;;10.25;4.35;;;;;;;7.06;50.14;92924.34;4972912;28;20086;-67
2023/03/10 11:06:12;;;;;;;13.40;8.73;;;;;;;7.28;49.69;92922.84;4968045;28;20048;-67
2023/03/10 11:08:39;;;;;;;6.25;1.80;;;;;;;6.15;51.52;92931.75;4972908;28;20022;-67
2023/03/10 11:11:28;;;;;;;9.90;5.85;;;;;;;7.18;48.48;92921.78;4974894;28;20141;-67
2023/03/10 11:14:18;;;;;;;7.53;1.95;;;;;;;6.33;51.93;92930.97;4970850;28;20039;-67
2023/03/10 11:16:56;;;;;;;5.50;2.63;;;;;;;6.71;51.35;92920.47;4974627;28;20034;-67
2023/03/10 11:19:39;;;;;;;6.22;1.90;;;;;;;6.87;48.42;92937.63;4960245;28;20400;-67
2023/03/10 11:22:44;;;;;;;6.20;1.73;;;;;;;6.49;49.91;92934.13;4958852;28;20427;-67
2023/03/10 11:25:43;;;;;;;5.13;1.50;;;;;;;6.35;50.29;92928.13;4967939;28;20050;-67
2023/03/10 11:28:28;;;;;;;4.40;1.45;;;;;;;6.21;50.31;92922.97;4956043;28;20039;-67
2023/03/10 11:30:59;;;;;;;3.60;1.55;;;;;;;6.17;51.57;92913.84;4956201;28;20050;-67
2023/03/10 11:33:25;;;;;;;4.93;1.67;;;;;;;5.31;52.45;92917.69;4957604;28;20265;-67
2023/03/10 11:35:53;;;;;;;9.13;1.87;;;;;;;5.76;50.93;92920.47;4971973;28;20720;-67
2023/03/10 11:38:36;;;;;;;5.72;1.80;;;;;;;7.05;49.90;92910.34;4957619;28;21318;-67
2023/03/10 11:41:14;;;;;;;3.65;1.10;;;;;;;7.36;47.72;92908.53;4962779;28;20042;-67
2023/03/10 11:43:58;;;;;;;2.45;1.25;;;;;;;6.81;48.79;92906.75;4973820;28;20038;-67
2023/03/10 11:46:44;;;;;;;2.35;1.10;;;;;;;8.12;48.51;92903.75;4959385;28;20050;-67